Time;durP1;ratioP1;P1;durP2;ratioP2;P2;SDS_P1;SDS_P2;PMS_P1;PMS_P2;Temp;Humidity;BMP_temperature;BMP_pressure;BME280_temperature;BME280_humidity;BME280_pressure;Samples;Min_cycle;Max_cycle;Signal;HPM_P1;HPM_P2
2023/01/19 00:00:10;;;;;;;28.10;22.10;;;;;;;1.77;94.02;99269.59;213647;1270;61324;-75
2023/01/19 00:05:05;;;;;;;34.30;23.20;;;;;;;1.77;93.93;99287.37;213726;1270;72001;-74
2023/01/19 00:09:58;;;;;;;37.90;23.90;;;;;;;1.78;94.01;99299.35;213685;1271;61375;-75
2023/01/19 00:14:51;;;;;;;31.80;23.30;;;;;;;1.79;94.39;99302.98;213740;1274;65310;-74
2023/01/19 00:19:44;;;;;;;34.40;24.60;;;;;;;1.79;93.94;99302.61;213679;1273;61301;-75
2023/01/19 00:24:37;;;;;;;38.00;24.70;;;;;;;1.77;94.08;99309.91;213727;1272;65857;-75
2023/01/19 00:29:32;;;;;;;36.00;25.00;;;;;;;1.77;94.03;99316.75;213465;1274;62341;-74
2023/01/19 00:34:25;;;;;;;33.50;23.60;;;;;;;1.80;94.28;99334.94;213736;1273;61320;-74
2023/01/19 00:39:18;;;;;;;31.40;21.90;;;;;;;1.82;94.31;99340.46;213590;1275;61381;-74
2023/01/19 00:44:12;;;;;;;36.10;23.00;;;;;;;1.81;93.84;99342.81;213592;1273;61308;-74
2023/01/19 00:49:05;;;;;;;31.10;21.30;;;;;;;1.79;93.85;99352.16;213609;1275;73103;-74
2023/01/19 00:54:03;;;;;;;32.10;21.90;;;;;;;1.74;94.06;99351.48;213498;1270;71530;-75
2023/01/19 00:58:56;;;;;;;35.50;22.70;;;;;;;1.68;94.05;99344.31;213441;1272;61368;-74
2023/01/19 01:03:49;;;;;;;33.50;22.10;;;;;;;1.64;93.60;99338.91;213514;1273;61311;-75
2023/01/19 01:08:42;;;;;;;33.80;22.80;;;;;;;1.63;93.97;99332.55;213561;1272;61326;-74
2023/01/19 01:13:35;;;;;;;37.00;24.60;;;;;;;1.61;94.09;99324.80;213696;1274;61590;-75
2023/01/19 01:18:27;;;;;;;31.80;22.30;;;;;;;1.56;93.76;99316.95;213705;1270;61310;-74
2023/01/19 01:23:21;;;;;;;29.90;20.80;;;;;;;1.46;93.51;99317.34;213755;1270;61400;-74
2023/01/19 01:28:14;;;;;;;29.00;20.00;;;;;;;1.38;93.33;99318.45;213709;1271;67002;-74
2023/01/19 01:33:08;;;;;;;31.20;21.00;;;;;;;1.35;93.82;99322.14;213747;1270;61402;-74
2023/01/19 01:38:01;;;;;;;30.00;21.00;;;;;;;1.35;93.64;99316.14;213697;1274;74637;-74
2023/01/19 01:42:54;;;;;;;32.60;22.70;;;;;;;1.37;93.85;99313.98;213512;1271;73633;-74
2023/01/19 01:47:49;;;;;;;33.20;22.50;;;;;;;1.42;94.22;99322.00;213536;1270;61367;-75
2023/01/19 01:52:50;;;;;;;34.20;23.30;;;;;;;1.45;94.15;99319.37;213650;1270;67126;-74
2023/01/19 01:58:04;;;;;;;32.80;22.30;;;;;;;1.48;94.16;99315.17;213641;1270;61287;-74
2023/01/19 02:02:58;;;;;;;32.70;22.30;;;;;;;1.50;93.78;99316.79;213773;1271;74705;-74
2023/01/19 02:13:26;;;;;;;33.90;22.50;;;;;;;1.54;94.11;99316.73;213742;1274;61451;-74
2023/01/19 02:18:21;;;;;;;35.50;23.60;;;;;;;1.52;94.05;99314.45;213711;1271;65921;-74
2023/01/19 02:23:20;;;;;;;34.40;23.50;;;;;;;1.45;93.87;99309.11;213670;1271;61256;-75
2023/01/19 02:28:15;;;;;;;34.90;22.20;;;;;;;1.39;93.76;99304.33;213747;1270;72347;-74
2023/01/19 02:33:08;;;;;;;34.30;24.00;;;;;;;1.37;93.91;99303.23;213729;1274;73315;-74
2023/01/19 02:38:02;;;;;;;38.20;24.50;;;;;;;1.37;93.69;99307.00;213677;1274;64225;-74
2023/01/19 02:42:59;;;;;;;36.00;25.40;;;;;;;1.39;94.00;99313.35;213685;1274;67102;-74
2023/01/19 02:47:53;;;;;;;33.90;23.30;;;;;;;1.41;94.11;99318.20;213522;1270;61298;-75
2023/01/19 02:52:46;;;;;;;32.40;22.30;;;;;;;1.42;94.01;99310.56;213707;1270;74672;-74
2023/01/19 02:58:04;;;;;;;34.50;22.80;;;;;;;1.43;94.04;99305.82;213685;1274;73008;-74
2023/01/19 03:03:05;;;;;;;34.70;23.10;;;;;;;1.44;93.95;99302.77;213689;1270;61326;-75
2023/01/19 03:08:03;;;;;;;38.20;23.60;;;;;;;1.45;93.83;99311.69;213598;1273;64834;-74
2023/01/19 03:13:06;;;;;;;32.20;22.40;;;;;;;1.46;93.71;99311.54;213701;1270;61275;-75
2023/01/19 03:18:02;;;;;;;37.90;24.40;;;;;;;1.49;94.09;99312.48;213713;1270;74413;-74
2023/01/19 03:23:04;;;;;;;32.30;23.00;;;;;;;1.51;94.27;99316.33;213665;1274;73714;-75
2023/01/19 03:27:58;;;;;;;30.70;21.50;;;;;;;1.52;94.00;99321.97;213728;1271;61274;-74
2023/01/19 03:32:56;;;;;;;37.10;23.90;;;;;;;1.52;93.78;99331.02;213709;1274;66955;-74
2023/01/19 03:37:54;;;;;;;34.90;21.50;;;;;;;1.54;94.48;99335.35;213717;1274;61364;-75
2023/01/19 03:42:50;;;;;;;32.90;22.00;;;;;;;1.57;94.50;99340.53;213755;1273;75765;-75
2023/01/19 03:47:43;;;;;;;33.40;22.50;;;;;;;1.58;94.09;99346.73;213478;1275;71144;-74
2023/01/19 03:52:37;;;;;;;32.20;21.60;;;;;;;1.59;94.00;99348.14;213675;1273;61252;-75
2023/01/19 03:57:30;;;;;;;31.60;20.80;;;;;;;1.59;94.27;99355.48;213629;1270;67087;-75
2023/01/19 04:02:24;;;;;;;33.90;22.30;;;;;;;1.58;93.98;99360.39;213788;1274;61428;-75
2023/01/19 04:07:17;;;;;;;33.60;20.90;;;;;;;1.58;94.17;99367.90;213692;1270;75055;-74
2023/01/19 04:12:10;;;;;;;34.50;21.10;;;;;;;1.58;94.26;99370.65;213770;1270;61333;-74
2023/01/19 04:17:03;;;;;;;34.40;23.10;;;;;;;1.57;93.99;99384.63;213708;1272;62154;-75
2023/01/19 04:21:57;;;;;;;36.90;22.80;;;;;;;1.60;94.08;99382.64;213754;1275;65596;-75
2023/01/19 04:26:52;;;;;;;33.00;21.80;;;;;;;1.61;94.47;99386.28;213692;1273;61393;-75
2023/01/19 04:31:45;;;;;;;30.20;21.50;;;;;;;1.62;94.18;99392.84;213729;1272;74548;-75
2023/01/19 04:36:38;;;;;;;29.40;20.20;;;;;;;1.63;94.33;99401.23;213724;1270;61396;-75
2023/01/19 04:41:31;;;;;;;31.80;20.90;;;;;;;1.64;93.93;99399.69;213748;1275;61324;-74
2023/01/19 04:46:24;;;;;;;32.40;21.20;;;;;;;1.64;94.25;99406.20;213645;1270;68782;-74
2023/01/19 04:51:17;;;;;;;30.80;20.60;;;;;;;1.65;93.97;99420.56;213709;1273;61589;-74
2023/01/19 04:56:11;;;;;;;30.00;21.20;;;;;;;1.65;94.30;99420.77;213751;1274;74359;-74
2023/01/19 05:01:08;;;;;;;30.90;21.50;;;;;;;1.66;94.33;99423.35;213699;1274;72579;-75
2023/01/19 05:06:01;;;;;;;33.20;22.00;;;;;;;1.65;94.21;99433.04;213652;1273;61284;-74
2023/01/19 05:10:56;;;;;;;31.40;21.40;;;;;;;1.67;94.75;99433.13;213717;1274;67031;-74
2023/01/19 05:15:49;;;;;;;31.10;21.20;;;;;;;1.69;94.36;99446.99;213727;1273;61896;-74
2023/01/19 05:20:42;;;;;;;29.90;19.80;;;;;;;1.69;94.33;99448.72;213694;1270;61314;-74
2023/01/19 05:25:35;;;;;;;26.30;18.70;;;;;;;1.70;94.12;99450.64;213620;1270;61371;-74
2023/01/19 05:30:28;;;;;;;28.80;18.50;;;;;;;1.69;94.09;99448.20;213681;1270;61307;-74
2023/01/19 05:35:20;;;;;;;27.70;18.40;;;;;;;1.69;94.47;99441.73;213534;1270;61566;-74
2023/01/19 05:40:27;;;;;;;27.60;18.70;;;;;;;1.70;94.20;99448.09;213415;1273;61233;-73
2023/01/19 05:45:20;;;;;;;27.50;17.00;;;;;;;1.71;94.15;99453.23;213488;1270;75270;-74
2023/01/19 05:50:13;;;;;;;24.60;17.20;;;;;;;1.71;94.26;99452.21;213633;1271;61416;-74
2023/01/19 05:55:06;;;;;;;27.80;18.40;;;;;;;1.71;94.32;99451.85;213653;1270;62268;-74
2023/01/19 05:59:59;;;;;;;26.00;17.60;;;;;;;1.71;94.16;99456.31;213708;1270;68290;-74
2023/01/19 06:04:53;;;;;;;28.20;17.60;;;;;;;1.71;94.12;99456.48;213552;1270;61329;-74
2023/01/19 06:09:46;;;;;;;23.30;15.70;;;;;;;1.73;94.04;99458.41;213397;1270;75479;-74
2023/01/19 06:14:39;;;;;;;24.80;17.30;;;;;;;1.73;94.12;99472.75;213375;1273;61301;-73
2023/01/19 06:19:32;;;;;;;29.80;19.30;;;;;;;1.72;94.19;99493.91;213469;1273;61242;-74
2023/01/19 06:24:25;;;;;;;27.40;18.80;;;;;;;1.72;94.10;99503.83;213099;1273;61316;-73
2023/01/19 06:29:18;;;;;;;28.00;19.50;;;;;;;1.73;94.26;99521.98;213099;1275;61366;-74
2023/01/19 06:34:11;;;;;;;32.30;18.30;;;;;;;1.74;94.55;99529.67;213125;1273;62872;-74
2023/01/19 06:39:04;;;;;;;29.90;18.70;;;;;;;1.74;94.07;99540.63;213414;1272;61279;-74
2023/01/19 06:43:57;;;;;;;28.90;19.90;;;;;;;1.75;93.95;99544.25;213348;1274;61189;-74
2023/01/19 06:48:50;;;;;;;32.60;22.40;;;;;;;1.77;94.32;99547.39;213261;1273;61285;-74
2023/01/19 06:53:44;;;;;;;28.80;19.30;;;;;;;1.79;94.33;99549.68;213564;1272;61432;-74
2023/01/19 06:58:37;;;;;;;33.90;22.00;;;;;;;1.80;94.15;99558.07;213384;1273;74764;-74
2023/01/19 07:03:30;;;;;;;27.90;19.60;;;;;;;1.81;94.21;99552.66;213453;1270;70192;-74
2023/01/19 07:08:24;;;;;;;32.40;20.50;;;;;;;1.82;93.86;99535.95;213628;1270;61753;-74
2023/01/19 07:13:17;;;;;;;30.00;19.40;;;;;;;1.84;93.91;99525.77;213651;1270;66994;-74
2023/01/19 07:18:09;;;;;;;29.00;18.90;;;;;;;1.85;93.86;99517.95;213696;1270;61419;-74
2023/01/19 07:23:03;;;;;;;27.90;20.10;;;;;;;1.88;93.82;99521.79;213582;1270;61341;-74
2023/01/19 07:28:00;;;;;;;24.30;16.30;;;;;;;1.91;94.17;99531.44;213859;1269;61336;-74
2023/01/19 07:32:56;;;;;;;30.00;19.70;;;;;;;1.93;94.05;99537.80;213816;1270;61288;-76
2023/01/19 07:37:50;;;;;;;32.30;19.70;;;;;;;1.95;93.92;99537.73;213778;1270;65832;-75
2023/01/19 07:42:50;;;;;;;29.30;20.10;;;;;;;2.00;93.78;99528.66;213666;1270;61412;-76
2023/01/19 07:47:48;;;;;;;25.80;18.00;;;;;;;2.06;93.94;99534.82;213880;1273;75492;-76
2023/01/19 07:52:41;;;;;;;24.40;17.50;;;;;;;2.10;93.91;99549.34;213994;1270;73226;-75
2023/01/19 07:57:35;;;;;;;24.50;16.10;;;;;;;2.15;93.86;99564.19;213778;1270;61507;-76
2023/01/19 08:02:29;;;;;;;28.00;18.60;;;;;;;2.18;94.07;99571.98;213967;1270;67026;-77
2023/01/19 08:07:21;;;;;;;27.70;18.50;;;;;;;2.22;93.85;99577.56;213862;1273;61284;-76
2023/01/19 08:12:14;;;;;;;29.90;21.10;;;;;;;2.24;93.72;99561.23;213876;1273;61320;-76
2023/01/19 08:17:07;;;;;;;30.50;20.30;;;;;;;2.27;93.66;99554.31;213828;1270;61400;-74
2023/01/19 08:22:00;;;;;;;24.30;17.80;;;;;;;2.31;93.58;99547.75;213878;1270;62047;-74
2023/01/19 08:26:59;;;;;;;27.30;18.60;;;;;;;2.34;93.27;99544.25;213866;1270;61400;-74
2023/01/19 08:31:54;;;;;;;27.80;19.70;;;;;;;2.36;93.23;99540.74;213886;1270;61378;-74
2023/01/19 08:36:48;;;;;;;26.40;17.30;;;;;;;2.38;92.95;99549.67;213962;1274;74726;-74
2023/01/19 08:41:41;;;;;;;28.60;18.20;;;;;;;2.39;92.92;99561.35;213802;1270;73924;-76
2023/01/19 08:46:33;;;;;;;24.20;17.10;;;;;;;2.42;93.14;99563.98;213938;1270;61285;-73
2023/01/19 08:51:26;;;;;;;23.90;16.60;;;;;;;2.44;92.44;99571.59;213956;1272;62122;-74
2023/01/19 08:56:19;;;;;;;23.60;16.20;;;;;;;2.47;92.69;99574.95;213850;1272;61862;-74
2023/01/19 09:01:15;;;;;;;26.30;15.10;;;;;;;2.51;92.47;99582.09;213979;1270;61412;-73
2023/01/19 09:06:13;;;;;;;26.50;17.50;;;;;;;2.52;92.50;99582.11;213873;1270;72672;-74
2023/01/19 09:11:11;;;;;;;25.50;17.30;;;;;;;2.53;92.53;99576.30;213749;1270;61937;-73
2023/01/19 09:16:06;;;;;;;;;;;;;;;2.55;92.37;99569.36;213974;1270;66851;-73
2023/01/19 09:20:59;;;;;;;22.40;15.70;;;;;;;2.56;91.84;99573.52;213882;1273;61329;-72
2023/01/19 09:25:58;;;;;;;20.10;14.40;;;;;;;2.59;91.72;99591.73;213897;1269;73531;-73
2023/01/19 09:30:51;;;;;;;18.30;13.00;;;;;;;2.65;91.92;99586.94;213828;1273;72306;-72
2023/01/19 09:35:46;;;;;;;20.20;13.30;;;;;;;2.76;91.57;99590.38;213955;1270;61285;-73
2023/01/19 09:40:50;;;;;;;16.90;11.30;;;;;;;2.85;91.44;99604.49;214021;1270;66972;-73
2023/01/19 09:46:04;;;;;;;21.90;15.20;;;;;;;2.87;91.21;99590.36;213946;1273;61394;-73
2023/01/19 09:51:02;;;;;;;19.70;13.50;;;;;;;2.87;91.02;99596.52;213953;1270;74783;-74
2023/01/19 09:55:55;;;;;;;17.00;12.10;;;;;;;2.95;91.02;99596.24;213883;1270;71416;-73
2023/01/19 10:00:58;;;;;;;16.80;12.20;;;;;;;3.06;90.78;99585.76;213930;1270;61355;-74
2023/01/19 10:05:59;;;;;;;16.50;12.20;;;;;;;3.11;90.46;99583.34;213900;1270;67017;-77
2023/01/19 10:10:54;;;;;;;15.20;11.20;;;;;;;3.11;90.32;99577.85;213808;1270;61839;-76
2023/01/19 10:15:56;;;;;;;17.00;12.20;;;;;;;3.11;90.28;99578.71;213722;1272;75603;-76
2023/01/19 10:20:55;;;;;;;16.60;12.10;;;;;;;3.10;90.07;99564.98;213677;1272;71947;-77
2023/01/19 10:25:48;;;;;;;16.80;13.20;;;;;;;3.10;90.12;99564.31;213704;1273;61302;-76
2023/01/19 10:30:44;;;;;;;18.70;13.50;;;;;;;3.09;90.33;99551.26;213722;1271;61263;-77
2023/01/19 10:35:37;;;;;;;18.90;14.10;;;;;;;3.13;90.55;99538.87;213633;1272;61294;-76
2023/01/19 10:40:40;;;;;;;18.80;13.60;;;;;;;3.15;90.35;99534.50;213813;1271;61342;-77
2023/01/19 10:45:34;;;;;;;21.10;15.30;;;;;;;3.18;90.27;99532.69;213691;1272;72000;-76
2023/01/19 10:50:32;;;;;;;22.40;14.30;;;;;;;3.22;90.17;99532.13;213756;1273;61540;-77
2023/01/19 10:55:25;;;;;;;17.70;13.90;;;;;;;3.22;89.91;99532.13;213787;1271;66648;-77
2023/01/19 11:00:41;;;;;;;16.70;12.80;;;;;;;3.23;89.77;99532.14;213797;1273;61409;-78
2023/01/19 11:05:34;;;;;;;16.90;12.80;;;;;;;3.22;89.99;99527.16;213691;1272;74644;-77
2023/01/19 11:10:29;;;;;;;21.30;16.20;;;;;;;3.25;89.96;99524.31;213872;1271;71208;-77
2023/01/19 11:15:28;;;;;;;23.20;15.50;;;;;;;3.27;90.13;99533.27;213746;1270;79732;-77
2023/01/19 11:20:28;;;;;;;16.80;12.60;;;;;;;3.29;90.13;99532.64;213861;1270;65290;-76
2023/01/19 11:25:31;;;;;;;19.70;15.10;;;;;;;3.27;89.77;99527.45;214031;1270;61299;-78
2023/01/19 11:30:26;;;;;;;19.40;14.20;;;;;;;3.27;89.69;99519.05;213977;1270;74334;-74
2023/01/19 11:35:31;;;;;;;19.90;13.90;;;;;;;3.28;89.75;99519.09;213940;1270;72670;-75
2023/01/19 11:40:24;;;;;;;17.20;13.20;;;;;;;3.27;89.97;99517.69;214057;1270;61288;-76
2023/01/19 11:45:19;;;;;;;17.00;12.30;;;;;;;3.22;89.97;99517.92;213893;1270;61400;-76
2023/01/19 11:50:26;;;;;;;19.60;14.70;;;;;;;3.21;90.18;99513.92;213899;1270;61468;-75
2023/01/19 11:55:43;;;;;;;18.00;12.00;;;;;;;3.21;89.98;99511.88;213927;1270;74626;-75
2023/01/19 12:00:42;;;;;;;18.70;13.50;;;;;;;3.19;90.13;99502.44;213887;1270;73658;-76
2023/01/19 12:05:39;;;;;;;17.00;12.40;;;;;;;3.22;90.08;99505.90;213908;1270;61300;-75
2023/01/19 12:10:40;;;;;;;14.70;12.40;;;;;;;3.23;89.95;99506.11;213942;1270;66615;-76
2023/01/19 12:15:41;;;;;;;16.20;12.80;;;;;;;3.21;90.10;99511.71;213888;1270;61268;-76
2023/01/19 12:20:43;;;;;;;21.80;14.90;;;;;;;3.20;90.22;99509.63;213909;1270;73672;-76
2023/01/19 12:25:51;;;;;;;19.50;13.90;;;;;;;3.18;90.02;99512.49;213802;1270;73333;-76
2023/01/19 12:30:46;;;;;;;19.60;14.60;;;;;;;3.18;90.24;99510.08;213897;1270;61283;-76
2023/01/19 12:36:01;;;;;;;21.40;16.50;;;;;;;3.20;89.78;99499.00;213897;1270;61294;-76
2023/01/19 12:41:26;;;;;;;19.70;15.20;;;;;;;3.21;89.61;99495.80;213938;1270;61297;-75
2023/01/19 12:46:27;;;;;;;20.60;15.60;;;;;;;3.23;89.39;99506.96;213899;1270;75496;-77
2023/01/19 12:51:25;;;;;;;21.60;15.20;;;;;;;3.21;89.61;99503.33;213878;1270;73730;-76
2023/01/19 12:56:18;;;;;;;;;;;;;;;3.20;89.17;99504.34;213945;1273;61281;-77
2023/01/19 13:01:15;;;;;;;20.40;14.70;;;;;;;3.18;89.42;99505.98;213962;1270;64851;-76
2023/01/19 13:06:08;;;;;;;22.10;16.00;;;;;;;3.15;89.52;99496.80;213887;1270;61281;-77
2023/01/19 13:11:01;;;;;;;22.80;16.60;;;;;;;3.11;89.22;99493.44;213843;1271;61319;-77
2023/01/19 13:15:57;;;;;;;26.10;18.40;;;;;;;3.04;89.23;99487.81;213742;1275;72368;-77
2023/01/19 13:20:55;;;;;;;21.80;16.50;;;;;;;3.02;89.09;99490.81;213758;1273;61836;-77
2023/01/19 13:25:52;;;;;;;25.70;17.50;;;;;;;2.97;88.95;99489.50;213991;1274;68475;-76
2023/01/19 13:30:55;;;;;;;27.70;19.00;;;;;;;2.93;89.08;99492.64;213762;1273;61314;-78
2023/01/19 13:35:58;;;;;;;25.60;17.50;;;;;;;2.93;89.35;99495.17;213681;1273;74587;-78
2023/01/19 13:40:52;;;;;;;25.50;18.20;;;;;;;2.91;89.40;99493.41;213827;1272;73634;-77
2023/01/19 13:45:51;;;;;;;25.90;18.60;;;;;;;2.89;89.28;99499.36;213752;1271;61431;-77
2023/01/19 13:51:04;;;;;;;28.70;19.20;;;;;;;2.88;89.36;99504.80;213885;1274;67819;-77
2023/01/19 13:56:16;;;;;;;25.10;17.80;;;;;;;2.87;89.68;99510.92;213790;1273;61400;-76
2023/01/19 14:01:23;;;;;;;24.00;16.50;;;;;;;2.83;89.51;99513.55;213871;1272;73576;-77
2023/01/19 14:06:31;;;;;;;22.70;16.60;;;;;;;2.81;89.64;99511.98;213650;1272;73804;-76
2023/01/19 14:11:24;;;;;;;23.90;17.10;;;;;;;2.77;89.26;99511.67;213776;1272;61288;-75
2023/01/19 14:16:18;;;;;;;21.70;16.20;;;;;;;2.75;89.40;99509.05;213759;1273;61513;-75
2023/01/19 14:21:17;;;;;;;25.10;16.40;;;;;;;2.72;89.72;99505.71;213775;1271;61419;-76
2023/01/19 14:26:46;;;;;;;26.30;16.50;;;;;;;2.67;89.46;99509.52;213722;1272;73401;-77
2023/01/19 14:31:46;;;;;;;22.60;16.60;;;;;;;2.62;89.55;99515.02;213726;1272;73737;-76
2023/01/19 14:36:40;;;;;;;24.80;16.40;;;;;;;2.59;89.30;99514.06;213710;1273;61854;-76
2023/01/19 14:41:52;;;;;;;24.90;17.60;;;;;;;2.59;89.55;99517.14;213784;1270;67948;-76
2023/01/19 14:46:47;;;;;;;23.90;16.80;;;;;;;2.59;89.51;99517.64;213791;1273;61359;-77
2023/01/19 14:51:40;;;;;;;24.10;16.50;;;;;;;2.59;89.79;99518.50;213764;1273;74199;-79
2023/01/19 14:56:34;;;;;;;22.90;15.70;;;;;;;2.58;89.69;99518.99;213753;1272;61380;-77
2023/01/19 15:01:29;;;;;;;23.20;16.60;;;;;;;2.56;89.80;99520.99;213705;1275;61285;-76
2023/01/19 15:06:24;;;;;;;23.90;16.80;;;;;;;2.52;89.69;99528.41;213746;1272;66972;-74
2023/01/19 15:11:26;;;;;;;23.20;16.60;;;;;;;2.51;89.54;99533.83;213752;1271;61329;-73
2023/01/19 15:16:20;;;;;;;28.80;19.60;;;;;;;2.49;89.91;99535.15;213845;1270;73363;-74
2023/01/19 15:21:19;;;;;;;26.50;19.00;;;;;;;2.48;89.99;99539.57;213767;1272;72269;-74
2023/01/19 15:26:16;;;;;;;29.50;19.10;;;;;;;2.47;90.02;99550.31;213924;1271;61301;-74
2023/01/19 15:31:15;;;;;;;28.50;19.30;;;;;;;2.46;90.00;99539.01;213847;1272;65902;-74
2023/01/19 15:36:13;;;;;;;29.20;19.80;;;;;;;2.45;90.10;99531.61;213563;1272;61320;-76
2023/01/19 15:41:13;;;;;;;26.50;18.10;;;;;;;2.43;89.88;99537.03;213800;1270;74614;-77
2023/01/19 15:46:06;;;;;;;32.50;22.30;;;;;;;2.41;90.19;99544.48;213822;1273;71103;-76
2023/01/19 15:50:59;;;;;;;32.70;22.20;;;;;;;2.40;90.34;99551.98;213788;1273;61328;-75
2023/01/19 15:55:55;;;;;;;28.90;18.90;;;;;;;2.38;90.15;99551.91;213871;1272;67125;-75
2023/01/19 16:00:56;;;;;;;72.70;52.80;;;;;;;2.37;90.43;99549.33;213712;1272;61300;-75
2023/01/19 16:05:49;;;;;;;40.30;27.80;;;;;;;2.37;90.48;99549.14;213855;1270;75002;-75
2023/01/19 16:10:42;;;;;;;32.30;22.70;;;;;;;2.35;90.40;99544.12;213830;1274;61387;-76
2023/01/19 16:15:36;;;;;;;26.80;17.50;;;;;;;2.33;90.58;99545.25;213869;1270;61277;-76
2023/01/19 16:20:29;;;;;;;25.30;19.00;;;;;;;2.30;90.12;99546.02;213920;1270;67154;-75
2023/01/19 16:25:22;;;;;;;24.00;16.70;;;;;;;2.26;90.07;99548.32;213908;1270;61223;-77
2023/01/19 16:30:18;;;;;;;30.50;21.10;;;;;;;2.25;90.43;99554.42;213855;1270;61294;-76
2023/01/19 16:35:11;;;;;;;25.70;18.60;;;;;;;2.22;90.44;99557.23;213883;1270;73891;-75
2023/01/19 16:40:04;;;;;;;26.80;16.60;;;;;;;2.21;90.57;99557.54;213888;1275;61253;-75
2023/01/19 16:44:57;;;;;;;25.60;16.40;;;;;;;2.19;90.53;99556.96;213879;1271;65722;-76
2023/01/19 16:49:50;;;;;;;25.30;17.60;;;;;;;2.18;90.64;99558.64;213894;1270;61675;-76
2023/01/19 16:54:43;;;;;;;29.00;20.80;;;;;;;2.16;90.64;99562.84;214004;1273;61313;-76
2023/01/19 16:59:38;;;;;;;28.80;20.60;;;;;;;2.14;90.62;99566.89;213888;1270;61337;-76
2023/01/19 17:04:31;;;;;;;29.30;21.30;;;;;;;2.11;90.57;99559.80;213885;1270;61374;-76
2023/01/19 17:09:24;;;;;;;29.60;21.70;;;;;;;2.09;90.87;99560.57;213950;1270;67792;-76
2023/01/19 17:14:19;;;;;;;26.20;18.70;;;;;;;2.09;90.74;99561.08;213935;1270;61380;-77
2023/01/19 17:19:17;;;;;;;24.80;18.90;;;;;;;2.08;90.73;99550.10;213970;1274;73160;-76
2023/01/19 17:24:10;;;;;;;24.70;17.80;;;;;;;2.06;90.53;99549.04;213924;1270;73402;-73
2023/01/19 17:29:08;;;;;;;23.90;17.60;;;;;;;2.04;90.80;99549.48;213969;1270;61329;-73
2023/01/19 17:34:02;;;;;;;30.40;21.50;;;;;;;2.02;90.90;99541.38;213739;1270;68492;-73
2023/01/19 17:39:00;;;;;;;27.90;21.30;;;;;;;2.01;91.03;99543.20;213794;1271;62840;-73
2023/01/19 17:43:53;;;;;;;24.50;18.60;;;;;;;1.99;91.01;99541.80;213854;1270;74365;-73
2023/01/19 17:48:52;;;;;;;23.60;16.60;;;;;;;1.96;90.96;99529.86;213823;1273;72374;-72
2023/01/19 17:53:45;;;;;;;22.70;16.10;;;;;;;1.91;90.86;99535.52;213880;1270;61301;-75
2023/01/19 17:58:39;;;;;;;22.50;15.90;;;;;;;1.87;90.97;99551.16;213814;1270;61322;-73
2023/01/19 18:03:31;;;;;;;21.50;15.80;;;;;;;1.85;91.02;99553.29;213749;1270;61409;-73
2023/01/19 18:08:24;;;;;;;23.40;16.60;;;;;;;1.81;91.02;99547.19;213686;1270;61489;-73
2023/01/19 18:13:17;;;;;;;22.70;17.40;;;;;;;1.81;90.92;99548.20;213742;1270;61335;-73
2023/01/19 18:18:10;;;;;;;26.30;17.90;;;;;;;1.79;91.15;99542.00;213787;1270;61390;-73
2023/01/19 18:23:03;;;;;;;24.70;18.60;;;;;;;1.79;90.86;99546.77;213761;1270;59800;-73
2023/01/19 18:27:55;;;;;;;28.00;19.20;;;;;;;1.78;91.36;99546.90;213723;1271;61307;-74
2023/01/19 18:32:50;;;;;;;23.20;16.00;;;;;;;1.76;90.87;99548.22;213712;1270;61409;-73
2023/01/19 18:37:43;;;;;;;24.60;18.80;;;;;;;1.73;90.83;99552.71;213500;1275;71900;-73
2023/01/19 18:42:36;;;;;;;26.00;18.10;;;;;;;1.70;90.75;99549.71;213610;1270;61787;-73
2023/01/19 18:47:29;;;;;;;26.30;17.70;;;;;;;1.67;90.86;99546.55;213768;1273;61303;-73
2023/01/19 18:52:22;;;;;;;31.60;20.60;;;;;;;1.64;90.85;99547.80;213583;1273;61293;-73
2023/01/19 18:57:16;;;;;;;31.50;21.20;;;;;;;1.63;90.67;99552.04;213634;1274;63169;-73
2023/01/19 19:02:12;;;;;;;37.90;25.80;;;;;;;1.61;91.00;99550.27;213724;1270;72725;-73
2023/01/19 19:07:05;;;;;;;35.80;25.20;;;;;;;1.59;90.90;99549.68;213977;1271;61326;-73
2023/01/19 19:11:58;;;;;;;39.00;28.50;;;;;;;1.56;90.65;99552.47;213946;1274;61279;-74
2023/01/19 19:16:51;;;;;;;38.70;27.50;;;;;;;1.51;90.73;99554.89;213964;1270;61272;-73
2023/01/19 19:21:44;;;;;;;37.20;25.70;;;;;;;1.47;90.50;99562.94;213838;1270;61322;-73
2023/01/19 19:26:37;;;;;;;37.90;24.80;;;;;;;1.45;90.58;99559.82;213989;1270;61292;-73
2023/01/19 19:31:30;;;;;;;73.50;43.60;;;;;;;1.44;90.47;99563.02;213859;1274;61252;-73
2023/01/19 19:36:25;;;;;;;60.90;35.30;;;;;;;1.42;90.78;99564.47;213697;1271;65647;-73
2023/01/19 19:41:21;;;;;;;40.20;27.50;;;;;;;1.40;90.98;99565.77;213652;1271;61403;-73
2023/01/19 19:46:16;;;;;;;41.20;26.80;;;;;;;1.37;90.83;99572.48;213729;1270;74363;-74
2023/01/19 19:51:10;;;;;;;44.60;27.50;;;;;;;1.35;90.86;99578.23;213793;1270;71984;-74
2023/01/19 19:56:12;;;;;;;41.80;27.70;;;;;;;1.34;91.01;99582.95;213749;1270;61950;-74
2023/01/19 20:01:14;;;;;;;39.00;26.80;;;;;;;1.33;91.14;99584.98;213777;1270;68143;-74
2023/01/19 20:06:13;;;;;;;40.60;26.60;;;;;;;1.28;90.69;99590.94;213718;1274;61289;-73
2023/01/19 20:11:12;;;;;;;36.00;24.40;;;;;;;1.25;90.75;99598.51;213579;1270;74649;-74
2023/01/19 20:16:09;;;;;;;39.40;28.10;;;;;;;1.24;90.69;99600.70;213549;1270;72386;-74
2023/01/19 20:21:11;;;;;;;48.00;31.60;;;;;;;1.24;90.99;99599.16;213364;1270;63066;-74
2023/01/19 20:26:06;;;;;;;36.60;25.10;;;;;;;1.21;90.88;99603.31;213427;1270;67367;-73
2023/01/19 20:31:13;;;;;;;42.60;27.30;;;;;;;1.19;90.88;99610.41;213631;1271;61727;-73
2023/01/19 20:36:06;;;;;;;45.50;27.50;;;;;;;1.18;90.86;99613.95;213477;1273;75516;-72
2023/01/19 20:41:00;;;;;;;42.50;28.20;;;;;;;1.16;90.71;99618.02;213545;1273;71892;-73
2023/01/19 20:45:53;;;;;;;39.80;25.90;;;;;;;1.15;91.08;99614.38;213506;1271;61300;-73
2023/01/19 20:50:45;;;;;;;37.40;24.50;;;;;;;1.14;91.14;99618.96;213605;1270;61396;-73
2023/01/19 20:55:39;;;;;;;36.90;23.50;;;;;;;1.11;90.81;99629.10;213667;1270;61316;-73
2023/01/19 21:00:33;;;;;;;35.30;23.50;;;;;;;1.10;90.85;99619.81;213663;1273;75875;-72
2023/01/19 21:05:27;;;;;;;36.80;25.70;;;;;;;1.08;91.11;99618.23;213674;1273;71388;-72
2023/01/19 21:10:20;;;;;;;45.90;30.10;;;;;;;1.07;90.82;99623.66;213612;1273;61613;-73
2023/01/19 21:15:14;;;;;;;44.50;29.60;;;;;;;1.07;90.91;99625.02;213539;1270;66173;-73
2023/01/19 21:20:08;;;;;;;43.00;27.00;;;;;;;1.07;91.00;99627.40;213454;1270;61297;-73
2023/01/19 21:25:01;;;;;;;45.80;29.80;;;;;;;1.05;91.03;99641.98;213559;1272;72459;-73
2023/01/19 21:29:54;;;;;;;38.00;24.70;;;;;;;1.04;91.17;99651.52;213586;1275;71351;-73
2023/01/19 21:34:48;;;;;;;35.90;23.10;;;;;;;1.04;91.34;99660.40;213487;1271;61851;-73
2023/01/19 21:39:40;;;;;;;32.00;21.50;;;;;;;1.04;91.05;99671.65;213429;1270;67806;-73
2023/01/19 21:44:34;;;;;;;36.00;22.70;;;;;;;1.02;91.06;99680.60;213579;1271;61729;-73
2023/01/19 21:49:27;;;;;;;41.40;24.30;;;;;;;1.00;91.30;99687.04;213455;1274;74979;-73
2023/01/19 21:54:20;;;;;;;33.60;22.60;;;;;;;1.00;91.20;99696.40;213774;1276;61317;-73
2023/01/19 21:59:14;;;;;;;36.10;23.20;;;;;;;1.00;91.31;99696.58;213758;1275;61829;-72
2023/01/19 22:04:07;;;;;;;44.90;29.50;;;;;;;1.02;91.42;99701.96;213407;1276;66853;-73
2023/01/19 22:09:00;;;;;;;36.60;23.70;;;;;;;1.03;91.51;99701.13;213586;1274;61301;-73
2023/01/19 22:13:54;;;;;;;33.70;22.70;;;;;;;1.03;91.62;99703.36;213599;1273;61292;-73
2023/01/19 22:18:55;;;;;;;33.50;21.60;;;;;;;1.05;91.54;99706.16;213531;1273;71474;-73
2023/01/19 22:23:51;;;;;;;33.20;21.50;;;;;;;1.02;91.19;99715.29;213729;1274;61356;-74
2023/01/19 22:28:44;;;;;;;49.10;28.60;;;;;;;1.02;91.29;99711.67;213530;1271;66677;-73
2023/01/19 22:33:37;;;;;;;36.00;23.40;;;;;;;1.01;91.32;99708.77;213559;1274;61307;-73
2023/01/19 22:38:30;;;;;;;33.40;22.80;;;;;;;1.01;91.37;99711.29;213589;1274;61356;-73
2023/01/19 22:43:23;;;;;;;32.50;19.80;;;;;;;1.01;91.41;99720.49;213454;1274;61314;-73